createdAt,value
2022-07-27T00:01:11.918Z,22.9413
2022-07-27T00:06:13.170Z,22.91341
2022-07-27T00:11:14.110Z,22.84452
2022-07-27T00:16:15.134Z,22.87925
2022-07-27T00:21:16.083Z,22.83592
2022-07-27T00:26:17.064Z,22.69385
2022-07-27T00:31:18.139Z,22.64074
2022-07-27T00:36:19.110Z,22.6345
2022-07-27T00:41:20.049Z,22.54885
2022-07-27T00:46:21.186Z,22.5211
2022-07-27T00:51:22.227Z,22.53854
2022-07-27T00:56:23.339Z,22.57183
2022-07-27T01:01:24.289Z,22.61757
2022-07-27T01:06:27.343Z,22.77993
2022-07-27T01:11:28.413Z,22.88307
2022-07-27T01:16:29.366Z,22.95342
2022-07-27T01:21:34.091Z,23.0764
2022-07-27T01:26:35.170Z,23.24857
2022-07-27T01:31:36.239Z,23.33364
2022-07-27T01:36:37.344Z,23.37215
2022-07-27T01:41:38.265Z,23.45681
2022-07-27T01:46:39.312Z,23.49672
2022-07-27T01:51:40.277Z,23.6944
2022-07-27T01:56:41.248Z,23.7707
2022-07-27T02:01:42.857Z,24.08012
2022-07-27T02:06:43.845Z,24.25057
2022-07-27T02:11:44.747Z,24.3192
2022-07-27T02:16:45.749Z,24.56926
2022-07-27T02:21:46.917Z,24.63751
2022-07-27T02:26:49.558Z,24.81518
2022-07-27T02:31:50.602Z,24.80369
2022-07-27T02:36:51.522Z,24.9363
2022-07-27T02:41:52.435Z,25.0508
2022-07-27T02:46:53.333Z,25.20827
2022-07-27T02:51:54.372Z,25.36282
2022-07-27T02:56:55.339Z,25.50725
2022-07-27T03:01:56.514Z,25.48175
2022-07-27T03:06:57.583Z,25.63391
2022-07-27T03:11:58.528Z,25.7574
2022-07-27T03:16:59.479Z,25.92886
2022-07-27T03:22:00.424Z,26.10852
2022-07-27T03:27:11.297Z,26.21773
2022-07-27T03:32:12.273Z,26.40028
2022-07-27T03:37:13.307Z,26.56352
2022-07-27T03:42:14.340Z,26.64469
2022-07-27T03:47:15.413Z,26.85053
2022-07-27T03:52:18.008Z,26.95235
2022-07-27T03:57:19.043Z,27.05995
2022-07-27T04:02:20.056Z,27.24878
2022-07-27T04:07:21.007Z,27.31173
2022-07-27T04:12:21.904Z,27.28461
2022-07-27T04:17:53.653Z,27.34247
2022-07-27T04:22:57.674Z,27.30435
2022-07-27T04:27:58.594Z,27.32173
2022-07-27T04:32:59.565Z,27.47138
2022-07-27T04:38:00.466Z,27.45166
2022-07-27T04:43:01.408Z,27.4816
2022-07-27T04:48:02.407Z,27.45033
2022-07-27T04:53:03.346Z,27.44324
2022-07-27T04:58:09.436Z,27.30124
2022-07-27T05:03:10.457Z,27.16618
2022-07-27T05:08:12.576Z,26.79863
2022-07-27T05:13:13.668Z,26.73969
2022-07-27T05:18:14.705Z,26.58997
2022-07-27T05:23:15.610Z,26.35159
2022-07-27T05:28:16.629Z,26.3897
2022-07-27T05:33:17.626Z,26.27569
2022-07-27T05:38:18.610Z,26.11616
2022-07-27T05:43:19.527Z,26.07749
2022-07-27T05:48:20.447Z,25.8368
2022-07-27T05:53:21.395Z,25.85132
2022-07-27T05:58:23.226Z,25.8749
2022-07-27T06:03:25.949Z,25.91079
2022-07-27T06:08:26.968Z,26.00073
2022-07-27T06:13:28.539Z,25.74368
2022-07-27T06:18:29.531Z,25.53745
2022-07-27T06:23:30.457Z,25.56419
2022-07-27T06:28:31.401Z,25.67926
2022-07-27T06:33:32.777Z,25.70663
2022-07-27T06:38:33.711Z,25.7972
2022-07-27T06:43:35.777Z,25.80096
2022-07-27T06:48:37.197Z,25.91214
2022-07-27T06:53:43.211Z,25.97985
2022-07-27T06:58:44.169Z,25.98221
2022-07-27T07:03:45.232Z,25.78987
2022-07-27T07:08:46.173Z,25.77223
2022-07-27T07:13:47.123Z,25.73398
2022-07-27T07:18:52.313Z,25.66194
2022-07-27T07:23:53.771Z,25.65922
2022-07-27T07:28:54.661Z,25.64866
2022-07-27T07:33:55.797Z,25.38421
2022-07-27T07:38:56.750Z,24.43251
2022-07-27T07:43:57.939Z,24.05928
2022-07-27T07:48:58.917Z,23.2216
2022-07-27T07:54:00.182Z,22.93903
2022-07-27T07:59:01.185Z,22.46169
2022-07-27T08:04:02.359Z,22.44646
2022-07-27T08:09:03.278Z,21.60626
2022-07-27T08:14:04.439Z,21.34882
2022-07-27T08:19:05.390Z,21.56375
2022-07-27T08:24:06.412Z,21.23996
2022-07-27T08:29:11.380Z,21.45436
2022-07-27T08:34:14.857Z,21.21994
2022-07-27T08:39:41.717Z,21.42972
2022-07-27T08:45:07.174Z,21.52119
2022-07-27T08:50:08.117Z,21.1718
2022-07-27T08:55:09.158Z,21.1022
2022-07-27T09:00:10.075Z,21.2245
2022-07-27T09:05:11.045Z,21.16769
2022-07-27T09:15:12.458Z,20.34279
2022-07-27T09:20:18.014Z,20.34166
2022-07-27T09:25:38.425Z,20.56161
2022-07-27T09:30:53.668Z,20.2834
2022-07-27T09:40:55.145Z,19.86538
2022-07-27T09:45:56.426Z,19.60382
2022-07-27T09:51:02.140Z,19.18735
2022-07-27T09:56:04.341Z,19.34357
2022-07-27T10:01:05.260Z,19.51165
2022-07-27T10:06:06.200Z,19.54791
2022-07-27T10:11:07.345Z,19.7229
2022-07-27T10:16:08.366Z,19.96125
2022-07-27T10:21:09.376Z,19.95584
2022-07-27T10:26:10.356Z,19.90252
2022-07-27T10:31:11.304Z,19.59407
2022-07-27T10:36:16.443Z,18.89106
2022-07-27T10:41:17.868Z,18.32829
2022-07-27T10:46:18.828Z,18.39642
2022-07-27T10:51:20.073Z,18.31769
2022-07-27T10:56:26.095Z,18.08182
2022-07-27T11:01:27.116Z,18.13866
2022-07-27T11:06:33.422Z,18.42444
2022-07-27T11:11:38.888Z,18.14534
2022-07-27T11:16:54.154Z,18.19554
2022-07-27T11:21:57.896Z,17.52787
2022-07-27T11:26:58.913Z,17.74492
2022-07-27T11:32:00.129Z,17.86769
2022-07-27T11:37:01.228Z,17.65641
2022-07-27T11:42:08.689Z,17.60928
2022-07-27T11:47:13.173Z,17.52506
2022-07-27T11:52:14.088Z,17.38305
2022-07-27T11:57:15.036Z,17.70604
2022-07-27T12:02:16.035Z,17.4957
2022-07-27T12:07:17.338Z,17.30863
2022-07-27T12:12:18.772Z,17.18815
2022-07-27T12:17:19.923Z,17.43912
2022-07-27T12:27:21.529Z,17.67699
2022-07-27T12:32:22.431Z,17.70353
2022-07-27T12:37:23.325Z,17.60703
2022-07-27T12:42:24.292Z,17.53003
2022-07-27T12:47:27.825Z,17.21342
2022-07-27T12:52:29.128Z,17.03075
2022-07-27T12:57:54.102Z,16.57117
2022-07-27T13:02:56.709Z,16.70552
2022-07-27T13:07:57.637Z,16.77126
2022-07-27T13:12:58.587Z,16.82239
2022-07-27T13:17:59.500Z,17.1188
2022-07-27T13:23:00.442Z,17.01875
2022-07-27T13:28:01.410Z,16.48758
2022-07-27T13:33:02.336Z,16.30842
2022-07-27T13:38:03.241Z,16.20288
2022-07-27T13:43:09.295Z,16.00168
2022-07-27T13:48:13.372Z,15.33518
2022-07-27T13:53:15.310Z,14.91889
2022-07-27T13:58:16.671Z,14.97731
2022-07-27T14:03:17.592Z,15.18167
2022-07-27T14:08:20.345Z,15.12522
2022-07-27T14:13:21.300Z,15.17773
2022-07-27T14:18:22.600Z,15.18658
2022-07-27T14:23:23.544Z,14.8843
2022-07-27T14:28:24.505Z,14.82073
2022-07-27T14:33:26.100Z,15.10634
2022-07-27T14:38:34.331Z,15.25091
2022-07-27T14:43:35.290Z,15.59094
2022-07-27T14:49:04.715Z,15.29673
2022-07-27T14:54:06.969Z,15.57042
2022-07-27T14:59:07.914Z,15.28646
2022-07-27T15:04:08.845Z,15.56429
2022-07-27T15:09:09.965Z,15.82979
2022-07-27T15:14:11.063Z,15.9512
2022-07-27T15:19:12.402Z,16.06717
2022-07-27T15:24:13.546Z,15.96005
2022-07-27T15:29:15.644Z,15.85452
2022-07-27T15:39:17.413Z,15.91722
2022-07-27T15:44:18.368Z,15.85912
2022-07-27T15:49:19.724Z,15.89041
2022-07-27T15:54:20.929Z,15.72359
2022-07-27T15:59:21.869Z,15.48326
2022-07-27T16:04:22.945Z,15.67998
2022-07-27T16:09:23.868Z,15.76013
2022-07-27T16:14:24.845Z,15.74681
2022-07-27T16:19:25.783Z,15.87205
2022-07-27T16:24:26.783Z,15.80579
2022-07-27T16:29:27.699Z,15.8612
2022-07-27T16:34:28.660Z,15.79048
2022-07-27T16:39:29.584Z,15.90503
2022-07-27T16:44:30.535Z,15.63511
2022-07-27T16:49:33.508Z,15.78673
2022-07-27T16:54:39.764Z,15.95521
2022-07-27T16:59:40.905Z,16.00123
2022-07-27T17:04:41.927Z,15.94756
2022-07-27T17:09:42.922Z,15.98336
2022-07-27T17:14:43.854Z,15.79949
2022-07-27T17:19:44.847Z,16.01229
2022-07-27T17:29:47.140Z,16.16147
2022-07-27T17:34:48.143Z,16.46881
2022-07-27T17:39:49.090Z,16.66163
2022-07-27T17:44:50.047Z,16.7701
2022-07-27T17:49:51.080Z,16.89643
2022-07-27T17:54:57.085Z,17.22189
2022-07-27T17:59:58.121Z,17.17185
2022-07-27T18:04:59.064Z,17.76849
2022-07-27T18:10:00.191Z,18.2966
2022-07-27T18:15:01.160Z,18.89576
2022-07-27T18:20:02.108Z,19.00251
2022-07-27T18:26:04.935Z,18.99978
2022-07-27T18:31:05.984Z,19.10979
2022-07-27T18:36:07.673Z,19.23307
2022-07-27T18:41:08.958Z,19.50206
2022-07-27T18:46:10.011Z,19.45772
2022-07-27T18:51:11.059Z,19.76738
2022-07-27T18:56:17.186Z,19.62177
2022-07-27T19:01:19.044Z,19.77031
2022-07-27T19:06:20.172Z,19.88576
2022-07-27T19:11:22.644Z,19.87636
2022-07-27T19:16:23.891Z,19.80083
2022-07-27T19:21:24.904Z,20.10716
2022-07-27T19:26:25.893Z,20.22834
2022-07-27T19:31:26.844Z,20.23762
2022-07-27T19:36:27.773Z,20.36265
2022-07-27T19:41:28.704Z,20.39848
2022-07-27T19:46:29.786Z,20.40598
2022-07-27T19:51:30.851Z,20.59963
2022-07-27T19:56:37.050Z,20.78181
2022-07-27T20:01:38.426Z,20.71767
2022-07-27T20:06:39.442Z,20.71464
2022-07-27T20:11:40.370Z,21.05771
2022-07-27T20:16:41.351Z,21.15988
2022-07-27T20:21:42.780Z,21.26529
2022-07-27T20:26:48.628Z,21.36951
2022-07-27T20:31:50.104Z,21.53155
2022-07-27T20:36:53.515Z,21.77732
2022-07-27T20:41:54.444Z,21.8594
2022-07-27T20:46:55.388Z,21.90054
2022-07-27T20:51:56.307Z,21.92467
2022-07-27T20:56:57.474Z,21.80025
2022-07-27T21:01:58.434Z,22.10949
2022-07-27T21:07:00.022Z,22.05154
2022-07-27T21:12:01.034Z,21.93423
2022-07-27T21:17:02.427Z,22.1599
2022-07-27T21:22:03.404Z,22.25932
2022-07-27T21:27:04.947Z,22.43663
2022-07-27T21:32:05.977Z,22.49244
2022-07-27T21:37:06.882Z,22.5639
2022-07-27T21:42:07.870Z,22.62246
2022-07-27T21:47:13.764Z,22.71014
2022-07-27T21:52:15.641Z,22.78521
2022-07-27T21:57:16.582Z,22.86107
2022-07-27T22:02:17.478Z,22.87969
2022-07-27T22:07:19.327Z,22.78962
2022-07-27T22:12:20.606Z,22.89076
2022-07-27T22:17:21.528Z,23.0566
2022-07-27T22:22:22.448Z,23.1473
2022-07-27T22:27:23.518Z,23.28616
2022-07-27T22:32:24.567Z,23.34552
2022-07-27T22:42:25.980Z,23.35754
2022-07-27T22:47:26.991Z,23.61982
2022-07-27T22:52:27.912Z,23.87202
2022-07-27T22:57:28.843Z,23.95936
2022-07-27T23:02:29.753Z,24.02145
2022-07-27T23:07:33.251Z,24.07696
2022-07-27T23:12:34.637Z,23.98446
2022-07-27T23:17:35.593Z,24.08197
2022-07-27T23:22:41.659Z,24.25607
2022-07-27T23:27:42.976Z,24.12643
2022-07-27T23:32:43.903Z,24.34536
2022-07-27T23:37:44.802Z,24.45699
2022-07-27T23:42:45.798Z,24.62889
2022-07-27T23:47:46.712Z,24.85219
2022-07-27T23:52:48.310Z,24.96534
